createdAt,value
2017-06-26T00:01:32.700Z,7.00
2017-06-26T00:04:00.269Z,6.97
2017-06-26T00:06:27.846Z,8.00
2017-06-26T00:08:55.715Z,7.40
2017-06-26T00:11:23.272Z,7.33
2017-06-26T00:13:50.841Z,7.10
2017-06-26T00:16:18.393Z,7.27
2017-06-26T00:18:45.950Z,7.67
2017-06-26T00:21:13.813Z,8.10
2017-06-26T00:23:41.373Z,7.03
2017-06-26T00:26:08.930Z,7.53
2017-06-26T00:28:36.498Z,8.30
2017-06-26T00:31:04.047Z,8.17
2017-06-26T00:33:31.926Z,7.37
2017-06-26T00:35:59.485Z,6.63
2017-06-26T00:38:27.033Z,6.90
2017-06-26T00:40:54.696Z,6.77
2017-06-26T00:43:22.240Z,9.20
2017-06-26T00:45:50.127Z,7.53
2017-06-26T00:48:17.671Z,5.97
2017-06-26T00:50:45.225Z,7.53
2017-06-26T00:53:12.791Z,7.10
2017-06-26T00:55:40.352Z,6.90
2017-06-26T00:58:08.218Z,7.33
2017-06-26T01:00:35.782Z,7.20
2017-06-26T01:03:03.338Z,7.37
2017-06-26T01:05:30.899Z,7.43
2017-06-26T01:07:58.452Z,6.80
2017-06-26T01:10:26.287Z,7.73
2017-06-26T01:12:53.854Z,8.10
2017-06-26T01:15:21.401Z,7.30
2017-06-26T01:17:48.967Z,8.60
2017-06-26T01:20:16.518Z,7.30
2017-06-26T01:22:44.517Z,31.07
2017-06-26T01:25:12.078Z,11.00
2017-06-26T01:27:39.623Z,7.20
2017-06-26T01:30:07.202Z,7.70
2017-06-26T01:32:34.768Z,8.40
2017-06-26T01:35:02.639Z,6.87
2017-06-26T01:37:30.191Z,7.17
2017-06-26T01:39:57.745Z,7.47
2017-06-26T01:42:25.320Z,7.90
2017-06-26T01:44:52.884Z,6.97
2017-06-26T01:47:20.732Z,7.70
2017-06-26T01:49:48.292Z,7.57
2017-06-26T01:52:15.859Z,7.47
2017-06-26T01:54:43.416Z,8.00
2017-06-26T01:57:10.965Z,6.70
2017-06-26T01:59:38.805Z,7.50
2017-06-26T02:02:06.365Z,6.20
2017-06-26T02:04:33.921Z,16.00
2017-06-26T02:07:01.478Z,6.27
2017-06-26T02:09:29.029Z,8.93
2017-06-26T02:11:56.933Z,11.60
2017-06-26T02:14:24.492Z,7.13
2017-06-26T02:16:52.046Z,6.80
2017-06-26T02:19:19.617Z,6.77
2017-06-26T02:21:47.175Z,9.13
2017-06-26T02:24:15.021Z,7.00
2017-06-26T02:26:42.579Z,6.67
2017-06-26T02:29:10.138Z,6.77
2017-06-26T02:31:37.715Z,6.50
2017-06-26T02:34:05.263Z,7.23
2017-06-26T02:36:33.133Z,7.37
2017-06-26T02:39:00.702Z,8.20
2017-06-26T02:41:28.263Z,8.07
2017-06-26T02:43:55.835Z,7.10
2017-06-26T02:46:23.395Z,7.10
2017-06-26T02:48:51.230Z,6.83
2017-06-26T02:51:18.785Z,6.70
2017-06-26T02:53:46.349Z,6.60
2017-06-26T02:56:13.915Z,6.57
2017-06-26T02:58:41.490Z,9.10
2017-06-26T03:01:09.334Z,6.77
2017-06-26T03:03:36.887Z,7.50
2017-06-26T03:06:04.461Z,8.03
2017-06-26T03:08:32.030Z,7.13
2017-06-26T03:10:59.584Z,7.33
2017-06-26T03:13:27.432Z,6.57
2017-06-26T03:15:54.989Z,7.27
2017-06-26T03:18:22.552Z,7.37
2017-06-26T03:20:50.115Z,6.73
2017-06-26T03:23:17.676Z,7.57
2017-06-26T03:25:45.526Z,6.67
2017-06-26T03:28:13.083Z,8.13
2017-06-26T03:30:40.636Z,7.30
2017-06-26T03:33:08.209Z,7.60
2017-06-26T03:35:35.757Z,7.50
2017-06-26T03:38:03.621Z,8.53
2017-06-26T03:40:31.193Z,7.07
2017-06-26T03:42:58.737Z,8.07
2017-06-26T03:45:26.313Z,6.50
2017-06-26T03:47:53.877Z,8.70
2017-06-26T03:50:21.730Z,6.53
2017-06-26T03:52:49.283Z,8.37
2017-06-26T03:55:16.845Z,7.20
2017-06-26T03:57:44.417Z,7.47
2017-06-26T04:00:12.009Z,7.47
2017-06-26T04:02:40.643Z,7.03
2017-06-26T04:05:08.196Z,8.73
2017-06-26T04:07:35.754Z,8.17
2017-06-26T04:10:03.576Z,7.60
2017-06-26T04:12:31.902Z,9.23
2017-06-26T04:14:59.454Z,6.50
2017-06-26T04:17:27.044Z,7.83
2017-06-26T04:19:54.588Z,6.63
2017-06-26T04:22:22.147Z,6.40
2017-06-26T04:24:49.715Z,7.37
2017-06-26T04:27:17.261Z,5.60
2017-06-26T04:29:45.118Z,6.40
2017-06-26T04:32:12.680Z,5.90
2017-06-26T04:34:40.238Z,5.00
2017-06-26T04:37:07.818Z,5.73
2017-06-26T04:39:35.375Z,4.80
2017-06-26T04:42:03.336Z,7.00
2017-06-26T04:44:30.896Z,7.13
2017-06-26T04:46:58.453Z,5.80
2017-06-26T04:49:26.023Z,5.80
2017-06-26T04:51:53.573Z,6.10
2017-06-26T04:54:21.429Z,5.27
2017-06-26T04:56:48.978Z,6.20
2017-06-26T04:59:16.547Z,5.20
2017-06-26T05:01:44.107Z,4.70
2017-06-26T05:04:11.657Z,5.03
2017-06-26T05:06:39.541Z,5.37
2017-06-26T05:09:07.097Z,4.97
2017-06-26T05:11:34.654Z,4.60
2017-06-26T05:14:02.230Z,5.53
2017-06-26T05:16:29.787Z,5.80
2017-06-26T05:18:57.647Z,5.00
2017-06-26T05:21:25.218Z,4.63
2017-06-26T05:23:52.774Z,6.13
2017-06-26T05:26:20.341Z,4.90
2017-06-26T05:28:47.929Z,5.07
2017-06-26T05:31:15.763Z,4.60
2017-06-26T05:33:43.336Z,5.23
2017-06-26T05:36:11.667Z,4.57
2017-06-26T05:38:39.233Z,5.13
2017-06-26T05:41:06.793Z,6.67
2017-06-26T05:43:34.648Z,6.90
2017-06-26T05:46:02.218Z,4.70
2017-06-26T05:48:29.803Z,5.27
2017-06-26T05:50:57.383Z,4.50
2017-06-26T05:53:24.955Z,4.50
2017-06-26T05:55:52.780Z,4.60
2017-06-26T05:58:20.340Z,4.67
2017-06-26T06:00:47.957Z,10.40
2017-06-26T06:03:15.532Z,4.90
2017-06-26T06:05:43.092Z,3.60
2017-06-26T06:08:10.954Z,6.40
2017-06-26T06:10:38.508Z,4.23
2017-06-26T06:13:06.052Z,4.63
2017-06-26T06:15:33.631Z,5.00
2017-06-26T06:18:01.214Z,4.40
2017-06-26T06:20:29.154Z,3.57
2017-06-26T06:22:56.711Z,3.53
2017-06-26T06:25:24.357Z,3.20
2017-06-26T06:27:51.962Z,3.27
2017-06-26T06:30:19.535Z,6.80
2017-06-26T06:32:48.130Z,3.93
2017-06-26T06:35:15.722Z,6.67
2017-06-26T06:37:43.294Z,3.40
2017-06-26T06:40:10.868Z,3.50
2017-06-26T06:42:38.422Z,3.73
2017-06-26T06:45:06.277Z,3.57
2017-06-26T06:47:33.846Z,2.97
2017-06-26T06:50:01.390Z,2.67
2017-06-26T06:52:28.940Z,2.90
2017-06-26T06:54:56.496Z,2.80
2017-06-26T06:57:24.396Z,3.10
2017-06-26T06:59:51.969Z,3.33
2017-06-26T07:02:19.539Z,3.57
2017-06-26T07:04:47.874Z,3.63
2017-06-26T07:07:15.439Z,4.70
2017-06-26T07:09:43.293Z,3.17
2017-06-26T07:12:10.854Z,3.20
2017-06-26T07:14:38.424Z,3.77
2017-06-26T07:17:05.986Z,3.70
2017-06-26T07:19:33.552Z,5.73
2017-06-26T07:22:01.386Z,4.10
2017-06-26T07:24:28.934Z,3.33
2017-06-26T07:26:56.496Z,3.50
2017-06-26T07:29:24.057Z,3.40
2017-06-26T07:31:51.605Z,3.37
2017-06-26T07:34:19.494Z,3.90
2017-06-26T07:36:47.067Z,5.90
2017-06-26T07:39:14.665Z,5.07
2017-06-26T07:41:43.023Z,3.37
2017-06-26T07:44:10.585Z,3.00
2017-06-26T07:46:39.198Z,6.60
2017-06-26T07:49:06.740Z,2.97
2017-06-26T07:51:35.060Z,3.83
2017-06-26T07:54:02.630Z,5.57
2017-06-26T07:56:30.196Z,3.23
2017-06-26T07:58:58.148Z,4.60
2017-06-26T08:01:25.717Z,5.30
2017-06-26T08:03:53.281Z,3.40
2017-06-26T08:06:20.870Z,3.73
2017-06-26T08:08:49.186Z,3.00
2017-06-26T08:11:17.081Z,3.80
2017-06-26T08:13:44.648Z,2.80
2017-06-26T08:16:12.209Z,3.23
2017-06-26T08:18:39.796Z,3.77
2017-06-26T08:21:08.111Z,2.90
2017-06-26T08:23:35.962Z,3.57
2017-06-26T08:26:03.616Z,6.13
2017-06-26T08:28:31.193Z,3.63
2017-06-26T08:30:58.774Z,3.53
2017-06-26T08:33:26.349Z,3.70
2017-06-26T08:35:54.299Z,3.30
2017-06-26T08:38:21.869Z,4.23
2017-06-26T08:40:49.435Z,3.80
2017-06-26T08:43:17.011Z,4.20
2017-06-26T08:45:45.339Z,5.70
2017-06-26T08:48:13.186Z,3.97
2017-06-26T08:50:40.781Z,3.40
2017-06-26T08:53:08.339Z,7.70
2017-06-26T08:55:35.924Z,5.90
2017-06-26T08:58:03.487Z,4.03
2017-06-26T09:00:32.278Z,4.20
2017-06-26T09:03:00.613Z,3.57
2017-06-26T09:05:28.207Z,5.30
2017-06-26T09:07:55.784Z,4.07
2017-06-26T09:10:24.105Z,3.57
2017-06-26T09:12:51.966Z,4.13
2017-06-26T09:15:19.533Z,4.17
2017-06-26T09:17:47.093Z,3.93
2017-06-26T09:20:14.952Z,3.77
2017-06-26T09:22:42.503Z,3.90
2017-06-26T09:25:10.063Z,4.20
2017-06-26T09:27:37.624Z,4.03
2017-06-26T09:30:05.191Z,3.57
2017-06-26T09:32:32.751Z,4.63
2017-06-26T09:35:00.298Z,6.20
2017-06-26T09:37:27.865Z,4.33
2017-06-26T09:39:55.723Z,3.47
2017-06-26T09:42:23.290Z,4.00
2017-06-26T09:44:50.850Z,3.60
2017-06-26T09:47:18.433Z,4.03
2017-06-26T09:49:46.003Z,3.93
2017-06-26T09:52:14.700Z,4.00
2017-06-26T09:54:43.031Z,3.50
2017-06-26T09:57:10.592Z,3.77
2017-06-26T09:59:38.158Z,3.50
2017-06-26T10:02:05.715Z,3.63
2017-06-26T10:04:33.680Z,4.00
2017-06-26T10:07:01.230Z,3.30
2017-06-26T10:09:28.789Z,3.50
2017-06-26T10:11:56.362Z,3.90
2017-06-26T10:14:23.936Z,6.50
2017-06-26T10:16:51.878Z,3.20
2017-06-26T10:19:19.498Z,3.83
2017-06-26T10:21:47.055Z,3.67
2017-06-26T10:24:14.618Z,3.23
2017-06-26T10:26:42.178Z,4.77
2017-06-26T10:29:10.079Z,3.27
2017-06-26T10:31:37.642Z,3.10
2017-06-26T10:34:05.219Z,3.60
2017-06-26T10:36:32.815Z,3.20
2017-06-26T10:39:00.400Z,3.57
2017-06-26T10:41:28.261Z,4.17
2017-06-26T10:43:55.823Z,3.33
2017-06-26T10:46:23.390Z,3.20
2017-06-26T10:48:50.952Z,5.40
2017-06-26T10:51:18.514Z,4.77
2017-06-26T10:53:46.396Z,3.00
2017-06-26T10:56:13.961Z,2.97
2017-06-26T10:58:41.520Z,3.43
2017-06-26T11:01:09.132Z,3.70
2017-06-26T11:03:36.694Z,4.20
2017-06-26T11:06:04.555Z,2.83
2017-06-26T11:08:32.941Z,2.80
2017-06-26T11:11:00.498Z,3.00
2017-06-26T11:13:28.081Z,4.10
2017-06-26T11:15:55.647Z,3.50
2017-06-26T11:18:23.583Z,3.47
2017-06-26T11:20:51.167Z,6.60
2017-06-26T11:23:18.729Z,3.17
2017-06-26T11:25:46.309Z,2.73
2017-06-26T11:28:14.644Z,3.80
2017-06-26T11:30:42.510Z,3.50
2017-06-26T11:33:10.073Z,2.77
2017-06-26T11:35:37.633Z,6.73
2017-06-26T11:38:05.200Z,3.43
2017-06-26T11:40:32.764Z,3.60
2017-06-26T11:43:00.600Z,8.20
2017-06-26T11:45:28.164Z,2.57
2017-06-26T11:47:55.714Z,4.00
2017-06-26T11:50:23.291Z,3.10
2017-06-26T11:52:50.843Z,3.30
2017-06-26T11:55:18.742Z,2.33
2017-06-26T11:57:46.313Z,6.20
2017-06-26T12:00:14.646Z,5.47
2017-06-26T12:02:42.229Z,6.50
2017-06-26T12:05:09.803Z,2.50
2017-06-26T12:07:37.754Z,3.07
2017-06-26T12:10:05.318Z,3.13
2017-06-26T12:12:32.875Z,5.50
2017-06-26T12:15:00.447Z,2.50
2017-06-26T12:17:28.006Z,2.47
2017-06-26T12:19:55.578Z,2.80
2017-06-26T12:22:23.893Z,4.63
2017-06-26T12:24:51.763Z,2.30
2017-06-26T12:27:19.352Z,2.83
2017-06-26T12:29:46.932Z,2.70
2017-06-26T12:32:14.513Z,2.40
2017-06-26T12:34:42.076Z,2.87
2017-06-26T12:37:09.981Z,2.77
2017-06-26T12:39:37.535Z,2.40
2017-06-26T12:42:05.108Z,2.70
2017-06-26T12:44:32.674Z,3.80
2017-06-26T12:47:00.244Z,3.20
2017-06-26T12:49:28.198Z,2.07
2017-06-26T12:51:55.762Z,2.20
2017-06-26T12:54:23.333Z,2.80
2017-06-26T12:56:51.682Z,2.80
2017-06-26T12:59:19.236Z,2.60
2017-06-26T13:01:47.150Z,2.57
2017-06-26T13:04:14.717Z,2.50
2017-06-26T13:06:42.281Z,2.70
2017-06-26T13:09:09.869Z,2.30
2017-06-26T13:11:37.430Z,2.37
2017-06-26T13:14:05.299Z,1.93
2017-06-26T13:16:32.859Z,2.97
2017-06-26T13:19:00.419Z,2.03
2017-06-26T13:21:27.991Z,2.37
2017-06-26T13:23:55.554Z,4.70
2017-06-26T13:26:23.400Z,3.97
2017-06-26T13:28:50.975Z,2.30
2017-06-26T13:31:18.536Z,2.20
2017-06-26T13:33:46.108Z,2.47
2017-06-26T13:36:13.659Z,2.00
2017-06-26T13:38:41.516Z,6.07
2017-06-26T13:41:09.098Z,4.73
2017-06-26T13:43:37.423Z,2.67
2017-06-26T13:46:04.980Z,2.60
2017-06-26T13:48:32.800Z,2.30
2017-06-26T13:51:01.416Z,3.27
2017-06-26T13:53:29.056Z,2.63
2017-06-26T13:55:57.374Z,2.67
2017-06-26T13:58:24.947Z,2.60
2017-06-26T14:00:52.492Z,2.30
2017-06-26T14:03:20.350Z,2.60
2017-06-26T14:05:47.927Z,2.80
2017-06-26T14:08:15.492Z,2.60
2017-06-26T14:10:43.080Z,3.27
2017-06-26T14:13:11.423Z,2.00
2017-06-26T14:15:39.261Z,2.40
2017-06-26T14:18:06.834Z,1.80
2017-06-26T14:20:34.397Z,2.90
2017-06-26T14:23:01.994Z,2.47
2017-06-26T14:25:30.339Z,2.10
2017-06-26T14:27:58.208Z,1.97
2017-06-26T14:30:25.782Z,2.00
2017-06-26T14:32:53.334Z,1.80
2017-06-26T14:35:20.920Z,3.67
2017-06-26T14:37:49.247Z,2.57
2017-06-26T14:40:17.096Z,2.20
2017-06-26T14:42:44.672Z,2.00
2017-06-26T14:45:12.238Z,3.53
2017-06-26T14:47:39.816Z,4.20
2017-06-26T14:50:07.374Z,2.80
2017-06-26T14:52:35.318Z,3.03
2017-06-26T14:55:02.877Z,2.63
2017-06-26T14:57:30.453Z,2.40
2017-06-26T14:59:58.032Z,2.50
2017-06-26T15:02:26.380Z,2.50
2017-06-26T15:04:53.940Z,4.93
2017-06-26T15:07:21.522Z,2.63
2017-06-26T15:09:49.111Z,2.47
2017-06-26T15:12:17.417Z,3.83
2017-06-26T15:14:45.069Z,2.10
2017-06-26T15:17:12.624Z,2.43
2017-06-26T15:19:40.201Z,3.23
2017-06-26T15:22:07.761Z,2.60
2017-06-26T15:24:35.620Z,2.40
2017-06-26T15:27:03.178Z,1.77
2017-06-26T15:29:30.755Z,3.00
2017-06-26T15:31:58.333Z,1.90
2017-06-26T15:34:25.896Z,2.27
2017-06-26T15:36:53.775Z,1.90
2017-06-26T15:39:22.093Z,2.23
2017-06-26T15:41:49.659Z,1.80
2017-06-26T15:44:17.235Z,1.90
2017-06-26T15:46:44.781Z,2.03
2017-06-26T15:49:12.644Z,1.80
2017-06-26T15:51:40.191Z,1.97
2017-06-26T15:54:07.737Z,2.30
2017-06-26T15:56:35.315Z,1.80
2017-06-26T15:59:02.879Z,2.00
2017-06-26T16:01:30.721Z,2.47
2017-06-26T16:03:58.295Z,2.20
2017-06-26T16:06:25.863Z,2.30
2017-06-26T16:08:53.451Z,1.83
2017-06-26T16:11:21.010Z,4.17
2017-06-26T16:13:48.897Z,2.00
2017-06-26T16:16:17.232Z,6.13
2017-06-26T16:18:44.803Z,2.13
2017-06-26T16:21:12.395Z,2.67
2017-06-26T16:23:39.962Z,2.93
2017-06-26T16:26:07.857Z,4.50
2017-06-26T16:28:35.423Z,2.00
2017-06-26T16:31:02.992Z,4.90
2017-06-26T16:33:30.550Z,2.50
2017-06-26T16:35:58.116Z,2.57
2017-06-26T16:38:25.965Z,2.60
2017-06-26T16:40:53.508Z,2.80
2017-06-26T16:43:21.050Z,4.27
2017-06-26T16:45:48.637Z,3.57
2017-06-26T16:48:16.201Z,2.27
2017-06-26T16:50:44.075Z,1.90
2017-06-26T16:53:11.638Z,2.53
2017-06-26T16:55:39.185Z,2.27
2017-06-26T16:58:06.763Z,2.53
2017-06-26T17:00:34.308Z,2.17
2017-06-26T17:03:02.170Z,2.17
2017-06-26T17:05:29.746Z,3.53
2017-06-26T17:07:57.309Z,3.73
2017-06-26T17:10:24.887Z,2.50
2017-06-26T17:12:53.221Z,4.90
2017-06-26T17:15:21.060Z,1.90
2017-06-26T17:17:48.641Z,1.93
2017-06-26T17:20:16.201Z,1.80
2017-06-26T17:22:43.779Z,3.00
2017-06-26T17:25:11.367Z,2.20
2017-06-26T17:27:39.278Z,1.80
2017-06-26T17:30:06.836Z,2.20
2017-06-26T17:32:34.411Z,2.60
2017-06-26T17:35:01.991Z,1.67
2017-06-26T17:37:29.546Z,2.03
2017-06-26T17:39:57.487Z,2.13
2017-06-26T17:42:25.038Z,1.60
2017-06-26T17:44:52.604Z,2.63
2017-06-26T17:47:20.174Z,1.80
2017-06-26T17:49:47.731Z,2.10
2017-06-26T17:52:15.586Z,2.60
2017-06-26T17:54:43.183Z,1.80
2017-06-26T17:57:11.524Z,2.20
2017-06-26T17:59:39.109Z,2.60
2017-06-26T18:02:06.664Z,4.73
2017-06-26T18:04:34.495Z,3.00
2017-06-26T18:07:02.068Z,2.23
2017-06-26T18:09:29.666Z,2.77
2017-06-26T18:11:57.989Z,2.77
2017-06-26T18:14:25.821Z,3.47
2017-06-26T18:16:53.675Z,4.63
2017-06-26T18:19:22.002Z,2.77
2017-06-26T18:21:49.579Z,2.10
2017-06-26T18:24:17.383Z,2.33
2017-06-26T18:26:45.762Z,2.00
2017-06-26T18:29:13.686Z,2.10
2017-06-26T18:31:41.246Z,2.63
2017-06-26T18:34:08.804Z,3.23
2017-06-26T18:36:36.377Z,2.20
2017-06-26T18:39:03.975Z,2.30
2017-06-26T18:41:31.906Z,3.63
2017-06-26T18:43:59.464Z,2.83
2017-06-26T18:46:27.109Z,3.00
2017-06-26T18:48:54.759Z,1.70
2017-06-26T18:51:22.331Z,2.50
2017-06-26T18:53:50.180Z,1.90
2017-06-26T18:56:17.761Z,2.23
2017-06-26T18:58:45.355Z,2.87
2017-06-26T19:01:12.953Z,4.13
2017-06-26T19:03:40.512Z,2.77
2017-06-26T19:06:08.570Z,1.90
2017-06-26T19:08:36.188Z,2.77
2017-06-26T19:11:04.519Z,2.10
2017-06-26T19:13:32.101Z,2.60
2017-06-26T19:15:59.658Z,3.50
2017-06-26T19:18:27.706Z,2.60
2017-06-26T19:20:55.289Z,3.80
2017-06-26T19:23:22.855Z,5.20
2017-06-26T19:25:50.429Z,2.43
2017-06-26T19:28:18.804Z,7.10
2017-06-26T19:30:46.744Z,2.63
2017-06-26T19:33:14.298Z,2.60
2017-06-26T19:35:41.903Z,4.27
2017-06-26T19:38:09.519Z,2.93
2017-06-26T19:40:37.097Z,2.93
2017-06-26T19:43:05.036Z,2.87
2017-06-26T19:45:32.603Z,2.30
2017-06-26T19:48:01.412Z,2.50
2017-06-26T19:50:28.995Z,2.53
2017-06-26T19:52:56.560Z,3.30
2017-06-26T19:55:24.405Z,2.40
2017-06-26T19:57:52.743Z,3.00
2017-06-26T20:00:20.474Z,2.50
2017-06-26T20:02:48.332Z,4.30
2017-06-26T20:05:15.896Z,2.30
2017-06-26T20:07:43.532Z,3.60
2017-06-26T20:10:11.885Z,2.90
2017-06-26T20:12:39.449Z,3.50
2017-06-26T20:15:07.006Z,2.90
2017-06-26T20:17:34.575Z,2.83
2017-06-26T20:20:02.920Z,3.53
2017-06-26T20:22:31.059Z,2.80
2017-06-26T20:24:58.652Z,3.17
2017-06-26T20:27:26.233Z,2.63
2017-06-26T20:29:53.894Z,2.80
2017-06-26T20:32:21.539Z,3.00
2017-06-26T20:34:49.505Z,2.73
2017-06-26T20:37:17.082Z,3.30
2017-06-26T20:39:44.725Z,3.47
2017-06-26T20:42:12.410Z,4.53
2017-06-26T20:44:40.771Z,2.70
2017-06-26T20:47:08.727Z,2.90
2017-06-26T20:49:36.290Z,2.70
2017-06-26T20:52:03.858Z,3.53
2017-06-26T20:54:31.459Z,3.10
2017-06-26T20:56:59.032Z,7.77
2017-06-26T20:59:26.907Z,3.47
2017-06-26T21:01:54.452Z,3.23
2017-06-26T21:04:22.026Z,3.40
2017-06-26T21:06:49.608Z,3.10
2017-06-26T21:09:17.170Z,4.30
2017-06-26T21:11:45.028Z,3.03
2017-06-26T21:14:12.606Z,2.90
2017-06-26T21:16:40.164Z,3.27
2017-06-26T21:19:07.732Z,3.03
2017-06-26T21:21:35.277Z,3.70
2017-06-26T21:24:03.139Z,2.93
2017-06-26T21:26:30.700Z,2.90
2017-06-26T21:28:58.284Z,2.70
2017-06-26T21:31:26.630Z,2.73
2017-06-26T21:33:54.401Z,4.50
2017-06-26T21:36:22.228Z,3.53
2017-06-26T21:38:49.818Z,2.43
2017-06-26T21:41:17.403Z,3.60
2017-06-26T21:43:45.741Z,2.30
2017-06-26T21:46:13.461Z,2.20
2017-06-26T21:48:41.356Z,2.63
2017-06-26T21:51:08.929Z,2.43
2017-06-26T21:53:36.594Z,2.93
2017-06-26T21:56:04.207Z,3.40
2017-06-26T21:58:31.780Z,2.47
2017-06-26T22:00:59.611Z,1.60
2017-06-26T22:03:27.947Z,1.97
2017-06-26T22:05:55.529Z,2.03
2017-06-26T22:08:23.128Z,2.03
2017-06-26T22:10:50.691Z,2.27
2017-06-26T22:13:18.535Z,2.50
2017-06-26T22:15:46.847Z,2.30
2017-06-26T22:18:14.426Z,3.00
2017-06-26T22:20:41.997Z,2.73
2017-06-26T22:23:09.588Z,2.40
2017-06-26T22:25:38.198Z,1.73
2017-06-26T22:28:05.772Z,2.17
2017-06-26T22:30:33.403Z,3.60
2017-06-26T22:33:00.992Z,2.77
2017-06-26T22:35:28.545Z,3.43
2017-06-26T22:37:56.426Z,1.83
2017-06-26T22:40:23.984Z,4.20
2017-06-26T22:42:51.552Z,2.63
2017-06-26T22:45:19.133Z,2.73
2017-06-26T22:47:46.707Z,3.17
2017-06-26T22:50:14.614Z,3.43
2017-06-26T22:52:42.177Z,2.50
2017-06-26T22:55:09.744Z,4.30
2017-06-26T22:57:37.298Z,3.00
2017-06-26T23:00:04.855Z,2.37
2017-06-26T23:02:32.731Z,3.33
2017-06-26T23:05:00.291Z,3.90
2017-06-26T23:07:27.861Z,2.20
2017-06-26T23:09:55.431Z,3.63
2017-06-26T23:12:22.987Z,2.53
2017-06-26T23:14:50.918Z,2.53
2017-06-26T23:17:18.583Z,4.23
2017-06-26T23:19:46.162Z,5.63
2017-06-26T23:22:13.738Z,2.13
2017-06-26T23:24:41.295Z,2.67
2017-06-26T23:27:09.161Z,4.30
2017-06-26T23:29:36.735Z,2.37
2017-06-26T23:32:05.053Z,2.40
2017-06-26T23:34:32.619Z,1.90
2017-06-26T23:37:00.177Z,2.27
2017-06-26T23:39:28.022Z,3.57
2017-06-26T23:41:55.584Z,1.83
2017-06-26T23:44:23.142Z,2.63
2017-06-26T23:46:50.724Z,2.20
2017-06-26T23:49:18.278Z,1.97
2017-06-26T23:51:46.159Z,1.77
2017-06-26T23:54:13.716Z,2.10
2017-06-26T23:56:41.291Z,2.50
2017-06-26T23:59:08.851Z,4.70
